Time;durP1;ratioP1;P1;durP2;ratioP2;P2;SDS_P1;SDS_P2;PMS_P1;PMS_P2;Temp;Humidity;BMP_temperature;BMP_pressure;BME280_temperature;BME280_humidity;BME280_pressure;Samples;Min_cycle;Max_cycle;Signal;HPM_P1;HPM_P2
2023/01/21 01:31:59;;;;;;;79.30;39.30;;;;;;;0.41;100.00;99479.86;102732;1312;574384;-63
2023/01/21 01:34:26;;;;;;;81.50;40.80;;;;;;;0.40;100.00;99463.15;104174;1295;138663;-62
2023/01/21 01:36:52;;;;;;;82.10;38.20;;;;;;;0.49;100.00;99477.98;104285;1296;138108;-63
2023/01/21 01:39:19;;;;;;;80.40;38.60;;;;;;;0.48;100.00;99476.24;104344;1296;24224;-62
2023/01/21 01:41:46;;;;;;;73.00;36.90;;;;;;;0.47;100.00;99479.81;104202;1290;139444;-62
2023/01/21 01:44:52;;;;;;;70.60;36.40;;;;;;;0.46;100.00;99481.38;104354;1296;22574;-63
2023/01/21 01:47:19;;;;;;;76.60;37.70;;;;;;;0.46;100.00;99485.83;104390;1293;22695;-59
2023/01/21 01:49:46;;;;;;;70.40;36.20;;;;;;;0.44;100.00;99487.09;104843;1283;138095;-59
2023/01/21 01:52:12;;;;;;;73.60;35.00;;;;;;;0.43;100.00;99485.66;104910;1274;22989;-59
2023/01/21 01:54:45;;;;;;;77.30;38.50;;;;;;;0.43;100.00;99473.01;104704;1283;138771;-59
2023/01/21 01:57:15;;;;;;;73.20;36.10;;;;;;;0.42;100.00;99474.59;104982;1290;22545;-59
2023/01/21 01:59:42;;;;;;;76.80;36.70;;;;;;;0.38;100.00;99473.04;104909;1288;139512;-58
2023/01/21 02:02:12;;;;;;;65.30;34.80;;;;;;;0.35;100.00;99464.48;104776;1284;26693;-62
2023/01/21 02:04:50;;;;;;;73.20;35.00;;;;;;;0.30;100.00;99463.29;104966;1275;22568;-59
2023/01/21 02:07:18;;;;;;;65.20;34.00;;;;;;;0.35;100.00;99464.35;104830;1289;138864;-59
2023/01/21 02:09:45;;;;;;;69.80;34.40;;;;;;;0.33;100.00;99470.46;109101;1289;22898;-60
2023/01/21 02:12:12;;;;;;;80.60;36.40;;;;;;;0.31;100.00;99471.40;109284;1290;139491;-60
2023/01/21 02:14:42;;;;;;;74.00;35.80;;;;;;;0.25;100.00;99453.80;109333;1283;22222;-60
2023/01/21 02:17:23;;;;;;;72.80;35.10;;;;;;;0.28;100.00;99459.44;109185;1289;22303;-59
2023/01/21 02:20:10;;;;;;;73.00;34.10;;;;;;;0.28;100.00;99471.64;109161;1284;139513;-60
2023/01/21 02:23:00;;;;;;;70.00;32.50;;;;;;;0.29;100.00;99476.58;109312;1289;22203;-60
2023/01/21 02:25:59;;;;;;;71.60;33.00;;;;;;;0.28;100.00;99485.20;108531;1296;139009;-59
2023/01/21 02:28:35;;;;;;;67.90;32.50;;;;;;;0.29;100.00;99482.65;108681;1296;22255;-60
2023/01/21 02:31:10;;;;;;;76.70;35.20;;;;;;;0.31;100.00;99482.32;108556;1296;138622;-59
2023/01/21 02:33:58;;;;;;;64.50;30.80;;;;;;;0.28;100.00;99487.73;108694;1290;22290;-60
2023/01/21 02:36:31;;;;;;;;;;;;;;;0.31;100.00;99496.99;108527;1296;138379;-60
2023/01/21 02:39:30;;;;;;;61.70;29.70;;;;;;;0.32;100.00;99497.79;108733;1296;22343;-60
2023/01/21 02:42:03;;;;;;;57.70;30.40;;;;;;;0.31;100.00;99499.10;108140;1296;138122;-59
2023/01/21 02:44:41;;;;;;;65.80;31.70;;;;;;;0.31;100.00;99506.80;108104;1301;22376;-60
2023/01/21 02:47:35;;;;;;;66.90;30.80;;;;;;;0.30;100.00;99511.91;108250;1301;22299;-60
2023/01/21 02:50:06;;;;;;;67.40;31.50;;;;;;;0.30;100.00;99518.01;108190;1296;22360;-60
2023/01/21 02:52:32;;;;;;;56.30;28.60;;;;;;;0.31;100.00;99513.08;108242;1301;22348;-60
2023/01/21 02:54:59;;;;;;;;;;;;;;;0.30;100.00;99516.66;108146;1301;138223;-60
2023/01/21 02:57:45;;;;;;;65.30;32.30;;;;;;;0.30;100.00;99513.76;108248;1301;22272;-60
2023/01/21 03:00:53;;;;;;;65.90;31.10;;;;;;;0.28;99.99;99525.64;108123;1301;138614;-60
2023/01/21 03:03:25;;;;;;;60.30;29.60;;;;;;;0.27;100.00;99519.29;107858;1296;22989;-60
2023/01/21 03:06:27;;;;;;;67.60;30.50;;;;;;;0.25;99.99;99510.27;107905;1302;138608;-59
2023/01/21 03:08:58;;;;;;;72.20;31.10;;;;;;;0.24;99.96;99500.13;107991;1303;23171;-60
2023/01/21 03:11:24;;;;;;;57.70;27.10;;;;;;;0.26;100.00;99512.39;107729;1303;23036;-59
2023/01/21 03:17:09;;;;;;;64.20;30.30;;;;;;;0.24;100.00;99501.58;107883;1289;22306;-60
2023/01/21 03:19:45;;;;;;;59.60;26.50;;;;;;;0.29;100.00;99499.66;108201;1295;139109;-60
2023/01/21 03:22:14;;;;;;;59.00;28.30;;;;;;;0.29;99.96;99507.61;108413;1293;22301;-60
2023/01/21 03:24:42;;;;;;;59.30;29.60;;;;;;;0.29;100.00;99492.62;108500;1297;139043;-60
2023/01/21 03:27:09;;;;;;;58.80;29.40;;;;;;;0.28;99.89;99489.49;108447;1297;22365;-60
2023/01/21 03:29:35;;;;;;;64.80;30.60;;;;;;;0.29;99.86;99504.07;108384;1297;22914;-60
2023/01/21 03:32:03;;;;;;;;;;;;;;;0.28;99.97;99497.20;108560;1297;22625;-59
2023/01/21 03:34:34;;;;;;;53.90;26.90;;;;;;;0.28;99.94;99488.96;108551;1296;22871;-59
2023/01/21 03:37:04;;;;;;;52.30;25.80;;;;;;;0.28;99.81;99483.27;108507;1293;137758;-59
2023/01/21 03:39:41;;;;;;;62.60;29.00;;;;;;;0.28;99.63;99511.50;108589;1297;22240;-60
2023/01/21 03:42:11;;;;;;;54.50;26.60;;;;;;;0.24;99.87;99509.89;109133;1283;138312;-60
2023/01/21 03:44:37;;;;;;;54.70;29.00;;;;;;;0.29;99.80;99510.09;109361;1290;22269;-59
2023/01/21 03:47:30;;;;;;;52.20;25.90;;;;;;;0.30;99.87;99510.17;109106;1286;22179;-60
2023/01/21 03:50:09;;;;;;;60.20;28.90;;;;;;;0.31;99.71;99516.13;109109;1289;137751;-60
2023/01/21 03:52:40;;;;;;;62.80;28.80;;;;;;;0.31;99.70;99509.45;109213;1289;22372;-60
2023/01/21 03:55:07;;;;;;;52.00;27.80;;;;;;;0.27;99.61;99489.05;109068;1287;138454;-60
2023/01/21 03:57:34;;;;;;;;;;;;;;;0.31;99.60;99493.20;109286;1283;22443;-60
2023/01/21 04:00:01;;;;;;;56.90;28.30;;;;;;;0.31;99.34;99492.54;109213;1284;124054;-60
2023/01/21 04:02:30;;;;;;;56.90;28.80;;;;;;;0.28;99.27;99488.08;109365;1287;22293;-59
2023/01/21 04:04:56;;;;;;;;;;;;;;;0.26;99.39;99496.19;109276;1283;22444;-60
2023/01/21 04:07:23;;;;;;;54.30;24.90;;;;;;;0.25;99.31;99498.94;109250;1287;125251;-60
2023/01/21 04:09:50;;;;;;;49.60;25.00;;;;;;;0.21;99.24;99487.52;109292;1290;22943;-60
2023/01/21 04:12:17;;;;;;;52.00;25.30;;;;;;;0.25;99.34;99510.64;109176;1289;138665;-60
2023/01/21 04:14:43;;;;;;;;;;;;;;;0.24;99.45;99513.90;109347;1283;22431;-60
2023/01/21 04:17:10;;;;;;;59.50;25.20;;;;;;;0.26;99.33;99523.59;109583;1286;23037;-60
2023/01/21 04:19:37;;;;;;;47.60;24.30;;;;;;;0.26;99.36;99530.28;109467;1278;138347;-60
2023/01/21 04:22:03;;;;;;;50.70;27.50;;;;;;;0.28;99.30;99532.23;109604;1286;22352;-60
2023/01/21 04:24:30;;;;;;;53.90;27.00;;;;;;;0.29;99.39;99536.10;109519;1286;137720;-59
2023/01/21 04:27:00;;;;;;;57.10;26.10;;;;;;;0.30;99.35;99532.94;109584;1286;22229;-60
2023/01/21 04:29:26;;;;;;;53.10;25.70;;;;;;;0.32;99.33;99526.56;109578;1278;22500;-60
2023/01/21 04:31:53;;;;;;;53.90;26.00;;;;;;;0.32;99.28;99524.58;109412;1280;138468;-59
2023/01/21 04:34:20;;;;;;;;;;;;;;;0.32;98.98;99527.18;109611;1280;22418;-60
2023/01/21 04:36:47;;;;;;;49.30;23.50;;;;;;;0.32;98.88;99529.66;109496;1285;123996;-60
2023/01/21 04:39:13;;;;;;;46.10;22.30;;;;;;;0.32;98.76;99525.38;109592;1283;22464;-60
2023/01/21 04:41:40;;;;;;;52.20;23.20;;;;;;;0.32;98.67;99530.27;109485;1279;139337;-59
2023/01/21 04:44:07;;;;;;;54.10;22.80;;;;;;;0.32;98.59;99531.67;109602;1280;22210;-60
2023/01/21 04:46:33;;;;;;;;;;;;;;;0.33;98.57;99536.75;109595;1283;22449;-60
2023/01/21 04:49:00;;;;;;;49.10;24.50;;;;;;;0.31;98.56;99527.46;109510;1280;123980;-60
2023/01/21 04:51:27;;;;;;;53.80;26.10;;;;;;;0.31;98.39;99525.16;109603;1285;22803;-59
2023/01/21 04:53:54;;;;;;;55.00;25.50;;;;;;;0.32;98.47;99537.77;109406;1286;139644;-60
2023/01/21 04:56:20;;;;;;;44.90;22.20;;;;;;;0.32;98.19;99536.00;109587;1286;22204;-60
2023/01/21 04:58:47;;;;;;;47.40;24.20;;;;;;;0.31;98.41;99526.89;109577;1286;22208;-59
2023/01/21 05:01:14;;;;;;;48.40;23.50;;;;;;;0.31;98.36;99526.42;109495;1280;138474;-59
2023/01/21 05:03:40;;;;;;;;;;;;;;;0.30;97.91;99527.45;109650;1280;22438;-59
2023/01/21 05:06:07;;;;;;;51.80;23.70;;;;;;;0.29;98.03;99534.83;109505;1285;124647;-59
2023/01/21 05:08:34;;;;;;;49.00;22.50;;;;;;;0.29;97.84;99547.43;109595;1285;22414;-59
2023/01/21 05:11:00;;;;;;;44.90;21.70;;;;;;;0.29;97.93;99558.20;109665;1280;23362;-59
2023/01/21 05:13:27;;;;;;;48.10;24.90;;;;;;;0.29;97.91;99547.94;109544;1279;138298;-59
2023/01/21 05:15:54;;;;;;;47.70;23.50;;;;;;;0.30;97.81;99540.64;109536;1283;23793;-59
2023/01/21 05:18:21;;;;;;;43.40;21.30;;;;;;;0.29;97.66;99534.00;109494;1280;138713;-59
2023/01/21 05:20:48;;;;;;;49.10;23.50;;;;;;;0.30;97.75;99536.10;109519;1280;22944;-59
2023/01/21 05:23:14;;;;;;;44.80;20.90;;;;;;;0.28;97.38;99541.30;109567;1280;22329;-59
2023/01/21 05:25:41;;;;;;;41.90;21.20;;;;;;;0.27;97.46;99533.38;109470;1286;139220;-59
2023/01/21 05:28:08;;;;;;;52.90;21.70;;;;;;;0.26;97.28;99532.59;109552;1280;22347;-60
2023/01/21 05:30:34;;;;;;;45.00;21.90;;;;;;;0.25;97.26;99540.20;109515;1286;139301;-59
2023/01/21 05:33:03;;;;;;;49.40;24.90;;;;;;;0.24;97.21;99533.76;109656;1285;22362;-60
2023/01/21 05:35:30;;;;;;;43.90;22.40;;;;;;;0.23;97.22;99528.15;109599;1286;23025;-59
2023/01/21 05:37:56;;;;;;;43.30;21.50;;;;;;;0.23;97.28;99534.61;109458;1280;138138;-60
2023/01/21 05:40:26;;;;;;;43.60;23.20;;;;;;;0.22;97.18;99543.09;107225;1280;22545;-58
2023/01/21 05:42:52;;;;;;;50.60;23.70;;;;;;;0.20;97.29;99541.54;104951;1280;138163;-58
2023/01/21 05:45:19;;;;;;;;;;;;;;;0.18;97.25;99539.00;105178;1286;25357;-59
2023/01/21 05:47:46;;;;;;;49.40;22.40;;;;;;;0.16;97.11;99549.94;104964;1283;125935;-59
2023/01/21 05:50:12;;;;;;;41.60;22.30;;;;;;;0.14;97.24;99552.91;105089;1279;25083;-58
2023/01/21 05:52:39;;;;;;;48.30;22.80;;;;;;;0.13;97.09;99553.03;105105;1281;23925;-58
2023/01/21 05:55:06;;;;;;;;;;;;;;;0.13;97.04;99551.66;105139;1286;138815;-59
2023/01/21 05:57:34;;;;;;;55.50;22.80;;;;;;;0.07;97.22;99539.73;105184;1285;22958;-59
2023/01/21 06:00:01;;;;;;;46.20;22.30;;;;;;;0.11;97.13;99545.42;104989;1283;139579;-58
2023/01/21 06:02:30;;;;;;;43.00;21.70;;;;;;;0.09;97.06;99540.08;109462;1285;22955;-60
2023/01/21 06:04:57;;;;;;;50.10;23.30;;;;;;;0.08;97.25;99535.05;109584;1286;22192;-59
2023/01/21 06:07:23;;;;;;;48.10;23.70;;;;;;;0.08;97.10;99534.53;109326;1286;138306;-59
2023/01/21 06:09:50;;;;;;;;;;;;;;;0.08;97.26;99529.59;109658;1285;22419;-59
2023/01/21 06:12:17;;;;;;;47.40;20.80;;;;;;;0.08;97.15;99531.69;109507;1279;126052;-59
2023/01/21 06:14:43;;;;;;;51.90;23.10;;;;;;;0.08;97.12;99543.48;109542;1286;22868;-59
2023/01/21 06:17:10;;;;;;;49.30;20.20;;;;;;;0.04;97.21;99537.34;109554;1284;22378;-59
2023/01/21 06:19:37;;;;;;;42.90;20.90;;;;;;;0.07;97.48;99539.10;109538;1285;139142;-59
2023/01/21 06:22:03;;;;;;;42.50;20.70;;;;;;;0.09;97.38;99547.95;109602;1286;22903;-59
2023/01/21 06:24:30;;;;;;;46.30;23.10;;;;;;;0.11;97.62;99551.45;109463;1280;138644;-59
2023/01/21 06:26:57;;;;;;;43.40;22.20;;;;;;;0.12;97.27;99554.25;109640;1282;22187;-59
2023/01/21 06:29:24;;;;;;;37.80;19.40;;;;;;;0.14;97.36;99558.75;109616;1286;23605;-59
2023/01/21 06:31:50;;;;;;;48.90;23.20;;;;;;;0.15;97.33;99556.27;109443;1280;139141;-59
2023/01/21 06:34:17;;;;;;;53.40;23.40;;;;;;;0.16;97.36;99561.16;109527;1286;22281;-59
2023/01/21 06:36:44;;;;;;;42.80;23.60;;;;;;;0.18;97.17;99560.39;109423;1280;138942;-59
2023/01/21 06:39:11;;;;;;;38.60;20.80;;;;;;;0.15;97.05;99553.08;109540;1278;22356;-63
2023/01/21 06:41:37;;;;;;;40.60;20.60;;;;;;;0.21;97.00;99566.33;109433;1283;138630;-62
2023/01/21 06:44:04;;;;;;;;;;;;;;;0.21;96.87;99553.39;109569;1283;22503;-63
2023/01/21 06:46:31;;;;;;;48.10;23.50;;;;;;;0.21;96.86;99556.30;109647;1283;22325;-63
2023/01/21 06:48:58;;;;;;;;;;;;;;;0.20;96.56;99561.08;109469;1286;138692;-64
2023/01/21 06:51:25;;;;;;;47.70;23.50;;;;;;;0.18;96.64;99557.18;109586;1285;23038;-63
2023/01/21 06:53:51;;;;;;;44.90;22.70;;;;;;;0.18;96.75;99552.10;109445;1286;139632;-63
2023/01/21 06:56:18;;;;;;;;;;;;;;;0.16;96.80;99549.81;109632;1281;23637;-63
2023/01/21 06:58:45;;;;;;;43.20;21.90;;;;;;;0.14;96.92;99554.51;109525;1280;22394;-63
2023/01/21 07:01:12;;;;;;;41.50;22.40;;;;;;;0.13;96.96;99547.71;109508;1286;139434;-63
2023/01/21 07:03:38;;;;;;;46.80;22.60;;;;;;;0.10;97.19;99538.44;109561;1280;22268;-63
2023/01/21 07:06:05;;;;;;;50.20;24.30;;;;;;;0.14;96.96;99547.23;109516;1280;139379;-63
2023/01/21 07:08:32;;;;;;;;;;;;;;;0.14;96.88;99554.31;109593;1285;22437;-63
2023/01/21 07:10:59;;;;;;;55.00;24.60;;;;;;;0.14;96.81;99565.02;109641;1280;22247;-63
2023/01/21 07:13:25;;;;;;;42.40;20.30;;;;;;;0.14;96.98;99568.04;109501;1280;138632;-63
2023/01/21 07:15:52;;;;;;;44.50;21.30;;;;;;;0.14;96.75;99583.86;109609;1285;22188;-63
2023/01/21 07:18:19;;;;;;;51.00;23.80;;;;;;;0.12;96.66;99586.27;109414;1286;138731;-63
2023/01/21 07:20:46;;;;;;;51.60;23.50;;;;;;;0.11;96.84;99590.38;109618;1279;22284;-63
2023/01/21 07:23:12;;;;;;;48.70;22.60;;;;;;;0.14;96.75;99612.58;109630;1280;22236;-63
2023/01/21 07:25:39;;;;;;;43.90;22.00;;;;;;;0.15;96.91;99614.23;109461;1280;138619;-62
2023/01/21 07:28:06;;;;;;;;;;;;;;;0.15;96.70;99619.75;109586;1286;22417;-63
2023/01/21 07:30:32;;;;;;;41.10;21.00;;;;;;;0.14;96.82;99624.13;109439;1286;124144;-63
2023/01/21 07:33:06;;;;;;;42.80;21.50;;;;;;;0.14;96.86;99628.24;109514;1286;22219;-63
2023/01/21 07:35:33;;;;;;;46.70;21.30;;;;;;;0.16;97.04;99633.56;109623;1286;22371;-63
2023/01/21 07:38:00;;;;;;;38.30;20.00;;;;;;;0.19;97.00;99639.75;109391;1279;139641;-63
2023/01/21 07:40:27;;;;;;;;;;;;;;;0.20;97.13;99637.80;109643;1278;22614;-63
2023/01/21 07:42:54;;;;;;;38.40;19.80;;;;;;;0.24;97.15;99645.99;109446;1286;124131;-63
2023/01/21 07:45:21;;;;;;;37.90;19.30;;;;;;;0.26;97.15;99657.36;109553;1280;22866;-63
2023/01/21 07:47:48;;;;;;;42.70;21.60;;;;;;;0.27;96.94;99666.86;109477;1283;138190;-63
2023/01/21 07:50:14;;;;;;;;;;;;;;;0.28;97.03;99677.10;109577;1281;22514;-63
2023/01/21 07:52:41;;;;;;;43.80;20.10;;;;;;;0.29;96.86;99676.27;109562;1286;23240;-63
2023/01/21 07:55:08;;;;;;;37.30;20.50;;;;;;;0.29;96.97;99680.88;109428;1286;140369;-63
2023/01/21 07:57:38;;;;;;;46.20;22.40;;;;;;;0.30;96.77;99682.67;109621;1286;22209;-63
2023/01/21 08:00:05;;;;;;;;;;;;;;;0.32;96.85;99688.91;109437;1286;138826;-63
2023/01/21 10:31:40;;;;;;;65.00;31.90;;;;;;;0.34;98.72;99718.95;103424;1298;558439;-65
2023/01/21 10:34:15;;;;;;;57.70;28.40;;;;;;;0.43;98.45;99718.77;104470;1284;112699;-65
2023/01/21 10:36:53;;;;;;;62.50;29.90;;;;;;;0.49;98.67;99721.52;104610;1284;23766;-65
2023/01/21 10:39:25;;;;;;;49.80;25.70;;;;;;;0.52;98.69;99733.61;104936;1284;22705;-65
2023/01/21 10:42:18;;;;;;;52.00;26.00;;;;;;;0.55;98.87;99737.50;104918;1280;23107;-65
2023/01/21 10:45:07;;;;;;;45.50;26.10;;;;;;;0.59;99.11;99735.38;105053;1280;24545;-65
2023/01/21 10:47:51;;;;;;;52.10;25.90;;;;;;;0.62;99.09;99730.99;109329;1284;22940;-66
2023/01/21 10:50:24;;;;;;;51.80;27.30;;;;;;;0.63;99.26;99728.63;109270;1281;22949;-66
2023/01/21 10:53:36;;;;;;;55.50;27.00;;;;;;;0.65;99.02;99712.92;109451;1287;23491;-66
2023/01/21 10:56:25;;;;;;;65.50;27.70;;;;;;;0.66;99.13;99710.39;108829;1288;22231;-66
2023/01/21 10:58:53;;;;;;;48.70;24.50;;;;;;;0.66;99.14;99719.38;108876;1295;22404;-66
2023/01/21 11:01:23;;;;;;;53.10;26.30;;;;;;;0.64;99.13;99731.20;108633;1291;22368;-67
2023/01/21 11:03:52;;;;;;;51.30;26.00;;;;;;;0.65;99.17;99730.58;108839;1288;22674;-67
2023/01/21 11:06:19;;;;;;;59.50;27.90;;;;;;;0.66;99.19;99740.63;108634;1290;22265;-68
2023/01/21 11:08:48;;;;;;;50.70;25.30;;;;;;;0.68;99.34;99736.32;108627;1290;22236;-67
2023/01/21 11:11:25;;;;;;;64.50;29.80;;;;;;;0.69;99.20;99736.83;108842;1287;22378;-66
2023/01/21 11:13:52;;;;;;;59.40;28.90;;;;;;;0.65;99.07;99721.65;108635;1296;22431;-67
2023/01/21 11:16:38;;;;;;;56.60;27.90;;;;;;;0.67;99.27;99734.62;108387;1295;138482;-67
2023/01/21 11:19:05;;;;;;;51.80;24.10;;;;;;;0.67;99.18;99748.06;108227;1301;22475;-67
2023/01/21 11:21:32;;;;;;;50.00;26.50;;;;;;;0.68;99.23;99752.20;107846;1299;138760;-67
2023/01/21 11:24:00;;;;;;;;;;;;;;;0.69;99.31;99749.78;108217;1296;22466;-67
2023/01/21 11:26:31;;;;;;;64.80;28.20;;;;;;;0.68;99.28;99745.56;108067;1302;22276;-67
2023/01/21 11:29:11;;;;;;;54.70;27.20;;;;;;;0.68;99.27;99743.98;108199;1296;137825;-67
2023/01/21 11:31:37;;;;;;;52.50;26.80;;;;;;;0.65;99.27;99738.73;108144;1302;23238;-67
2023/01/21 11:34:24;;;;;;;;;;;;;;;0.65;99.29;99748.98;108666;1295;138217;-68
2023/01/21 11:37:01;;;;;;;59.20;28.00;;;;;;;0.66;99.43;99738.27;108749;1291;22333;-67
2023/01/21 11:39:32;;;;;;;67.70;30.60;;;;;;;0.64;99.19;99741.09;108574;1293;136526;-67
2023/01/21 11:42:07;;;;;;;55.40;29.30;;;;;;;0.63;99.38;99734.02;108839;1294;22435;-67
2023/01/21 11:45:03;;;;;;;58.40;28.10;;;;;;;0.62;99.26;99731.79;108980;1294;22349;-67
2023/01/21 11:47:50;;;;;;;57.10;28.50;;;;;;;0.60;99.20;99743.14;108668;1289;138097;-67
2023/01/21 11:50:21;;;;;;;68.70;30.10;;;;;;;0.59;99.31;99752.45;108953;1288;22199;-67
2023/01/21 11:53:05;;;;;;;66.20;33.30;;;;;;;0.57;99.36;99753.80;108663;1290;138790;-67
2023/01/21 11:55:31;;;;;;;64.80;29.90;;;;;;;0.54;99.47;99756.98;108869;1294;23131;-67
2023/01/21 11:57:58;;;;;;;95.40;44.30;;;;;;;0.54;99.56;99754.44;108847;1290;138069;-67
2023/01/21 12:00:26;;;;;;;61.80;28.10;;;;;;;0.53;99.46;99749.46;108903;1294;22212;-67
2023/01/21 12:02:58;;;;;;;65.60;26.00;;;;;;;0.52;99.43;99752.95;108746;1295;22438;-67
2023/01/21 12:05:33;;;;;;;83.40;34.20;;;;;;;0.48;99.45;99754.53;108768;1294;138073;-67
2023/01/21 12:08:00;;;;;;;73.10;34.20;;;;;;;0.44;99.38;99751.00;108845;1287;22194;-67
2023/01/21 12:10:28;;;;;;;;;;;;;;;0.42;99.48;99759.40;108680;1294;139242;-67
2023/01/21 12:12:58;;;;;;;98.40;42.00;;;;;;;0.40;99.89;99766.05;108901;1295;22214;-67
2023/01/21 12:15:41;;;;;;;81.30;35.10;;;;;;;0.41;99.94;99781.81;108580;1293;137901;-67
2023/01/21 12:18:08;;;;;;;72.70;32.40;;;;;;;0.41;99.96;99782.23;108727;1294;22261;-67
2023/01/21 12:21:01;;;;;;;90.00;39.70;;;;;;;0.42;100.00;99783.67;108827;1287;22370;-67
2023/01/21 12:23:40;;;;;;;68.80;29.60;;;;;;;0.41;100.00;99784.73;108622;1294;138815;-68
2023/01/21 12:26:25;;;;;;;57.70;25.20;;;;;;;0.37;100.00;99776.35;108905;1290;22254;-67
2023/01/21 12:29:06;;;;;;;67.10;25.90;;;;;;;0.34;100.00;99786.13;108567;1293;138601;-67
2023/01/21 12:31:36;;;;;;;124.20;47.10;;;;;;;0.33;100.00;99793.61;108793;1295;22258;-68
2023/01/21 12:34:11;;;;;;;103.10;40.00;;;;;;;0.31;100.00;99792.02;108893;1287;138800;-68
2023/01/21 12:36:48;;;;;;;82.40;33.40;;;;;;;0.29;100.00;99796.41;109697;1285;22781;-68
2023/01/21 12:39:17;;;;;;;66.00;28.50;;;;;;;0.27;100.00;99797.92;109282;1281;138025;-68
2023/01/21 12:41:45;;;;;;;67.40;29.30;;;;;;;0.25;100.00;99821.09;109516;1285;22394;-68
2023/01/21 12:44:18;;;;;;;102.70;35.00;;;;;;;0.21;100.00;99819.78;109601;1286;22299;-68
2023/01/21 12:46:46;;;;;;;64.60;27.00;;;;;;;0.17;100.00;99826.61;109431;1281;139094;-68
2023/01/21 12:49:20;;;;;;;68.60;27.30;;;;;;;0.16;100.00;99828.20;109579;1280;22341;-68
2023/01/21 12:51:53;;;;;;;65.50;29.50;;;;;;;0.15;100.00;99838.65;109553;1278;138685;-68
2023/01/21 12:54:40;;;;;;;54.70;24.40;;;;;;;0.14;100.00;99857.19;109625;1286;22965;-68
2023/01/21 12:57:28;;;;;;;75.50;29.20;;;;;;;0.14;100.00;99870.64;109555;1286;22237;-68
2023/01/21 13:00:17;;;;;;;74.70;28.50;;;;;;;0.16;100.00;99875.36;109639;1284;22348;-68
2023/01/21 13:02:44;;;;;;;89.90;33.20;;;;;;;0.19;100.00;99870.37;109573;1283;22273;-67
2023/01/21 13:05:13;;;;;;;69.40;25.10;;;;;;;0.21;100.00;99865.63;109585;1285;139198;-66
2023/01/21 13:07:48;;;;;;;78.70;32.90;;;;;;;0.21;100.00;99859.11;109404;1286;22331;-67
2023/01/21 13:10:29;;;;;;;62.00;27.30;;;;;;;0.23;100.00;99861.16;109375;1286;138560;-68
2023/01/21 13:13:01;;;;;;;58.30;23.00;;;;;;;0.21;100.00;99854.04;109621;1286;22234;-67
2023/01/21 13:15:30;;;;;;;50.90;24.20;;;;;;;0.20;100.00;99854.69;109498;1280;138103;-68
2023/01/21 13:18:00;;;;;;;50.90;22.70;;;;;;;0.19;100.00;99854.59;109470;1283;22219;-68
2023/01/21 13:20:26;;;;;;;41.20;22.10;;;;;;;0.17;100.00;99865.05;109461;1282;22169;-68
2023/01/21 13:23:07;;;;;;;71.70;29.70;;;;;;;0.17;100.00;99876.27;109461;1286;138576;-68
2023/01/21 13:25:56;;;;;;;78.60;32.50;;;;;;;0.17;100.00;99882.34;109542;1286;22236;-68
2023/01/21 13:28:36;;;;;;;62.50;24.60;;;;;;;0.18;100.00;99883.57;109421;1285;138787;-68
2023/01/21 13:31:20;;;;;;;66.30;27.20;;;;;;;0.18;100.00;99874.63;109411;1283;23475;-68
2023/01/21 13:34:14;;;;;;;83.40;31.80;;;;;;;0.18;100.00;99870.98;109493;1280;139856;-68
2023/01/21 13:37:06;;;;;;;78.10;30.90;;;;;;;0.16;100.00;99868.13;109512;1285;22349;-67
2023/01/21 13:39:35;;;;;;;57.30;22.80;;;;;;;0.17;100.00;99875.48;109499;1281;138406;-68
2023/01/21 13:42:35;;;;;;;47.50;22.30;;;;;;;0.16;100.00;99879.80;109667;1279;22423;-67
2023/01/21 13:45:29;;;;;;;51.80;25.40;;;;;;;0.16;100.00;99885.36;109619;1285;22354;-67
2023/01/21 13:48:12;;;;;;;54.10;23.60;;;;;;;0.15;100.00;99882.46;109644;1285;22722;-68
2023/01/21 13:51:10;;;;;;;56.70;22.80;;;;;;;0.18;100.00;99883.73;109670;1279;22806;-67
2023/01/21 13:53:43;;;;;;;91.40;34.90;;;;;;;0.18;100.00;99895.30;109442;1282;138635;-67
2023/01/21 13:56:20;;;;;;;68.10;29.30;;;;;;;0.18;100.00;99904.93;109692;1283;22479;-67
2023/01/21 13:59:00;;;;;;;73.30;29.20;;;;;;;0.18;100.00;99906.71;109442;1286;138167;-66
2023/01/21 14:01:32;;;;;;;61.20;27.90;;;;;;;0.18;100.00;99910.66;109535;1285;22166;-66
2023/01/21 14:04:10;;;;;;;60.40;25.50;;;;;;;0.19;100.00;99924.50;109351;1286;138439;-66
2023/01/21 14:06:52;;;;;;;58.80;26.70;;;;;;;0.19;100.00;99940.23;109672;1285;23073;-66
2023/01/21 14:09:23;;;;;;;47.00;22.30;;;;;;;0.21;100.00;99950.33;109627;1286;22198;-66
2023/01/21 14:11:58;;;;;;;38.80;20.00;;;;;;;0.22;100.00;99954.35;109542;1286;22687;-66
2023/01/21 14:14:32;;;;;;;42.70;21.80;;;;;;;0.20;100.00;99954.33;109660;1284;22863;-66
2023/01/21 14:17:06;;;;;;;41.70;23.40;;;;;;;0.24;100.00;99964.81;109417;1280;138237;-66
2023/01/21 14:20:03;;;;;;;37.90;20.40;;;;;;;0.27;100.00;99968.02;109542;1286;22281;-66
2023/01/21 14:22:59;;;;;;;50.30;23.60;;;;;;;0.29;100.00;99965.80;109439;1281;138453;-65
2023/01/21 14:25:29;;;;;;;80.70;31.80;;;;;;;0.30;100.00;99965.02;109488;1279;22231;-66
2023/01/21 14:28:09;;;;;;;53.30;24.20;;;;;;;0.28;100.00;99964.48;109446;1286;139174;-66
2023/01/21 14:30:38;;;;;;;52.20;23.80;;;;;;;0.27;100.00;99971.36;109565;1285;22444;-66
2023/01/21 14:33:34;;;;;;;87.40;35.70;;;;;;;0.28;100.00;99975.61;109585;1285;22269;-66
2023/01/21 14:36:05;;;;;;;63.90;25.90;;;;;;;0.29;100.00;99979.73;109627;1285;22250;-66
2023/01/21 14:38:57;;;;;;;129.00;42.60;;;;;;;0.29;100.00;99986.98;109635;1283;22230;-67
2023/01/21 14:41:23;;;;;;;57.20;27.90;;;;;;;0.30;100.00;99984.38;109470;1281;138323;-66
2023/01/21 14:43:51;;;;;;;46.00;24.10;;;;;;;0.30;100.00;99986.73;109613;1279;22388;-67
2023/01/21 14:46:21;;;;;;;60.20;26.50;;;;;;;0.31;100.00;99989.30;109513;1285;138040;-67
2023/01/21 14:48:55;;;;;;;79.10;35.70;;;;;;;0.32;100.00;99994.41;109641;1280;24270;-69
2023/01/21 14:51:22;;;;;;;45.90;24.00;;;;;;;0.32;100.00;99996.89;109596;1285;22234;-68
2023/01/21 14:53:50;;;;;;;34.70;19.50;;;;;;;0.33;100.00;100001.04;109547;1278;138127;-68
2023/01/21 14:56:31;;;;;;;38.10;18.50;;;;;;;0.34;100.00;100001.44;109525;1285;22229;-68
2023/01/21 14:58:59;;;;;;;48.40;21.40;;;;;;;0.35;100.00;100003.54;109395;1285;138630;-69
2023/01/21 15:01:46;;;;;;;212.00;69.50;;;;;;;0.35;100.00;100000.83;109524;1286;22527;-68
2023/01/21 15:04:23;;;;;;;56.90;25.90;;;;;;;0.36;100.00;100003.60;109578;1285;138602;-68
2023/01/21 15:07:01;;;;;;;40.40;18.30;;;;;;;0.37;100.00;100000.11;109573;1286;23039;-69
2023/01/21 15:09:29;;;;;;;;;;;;;;;0.38;100.00;100002.64;109404;1283;139180;-68
2023/01/21 15:11:59;;;;;;;34.70;17.30;;;;;;;0.39;100.00;100005.27;109538;1284;22803;-67
2023/01/21 15:14:28;;;;;;;43.00;19.50;;;;;;;0.40;100.00;100010.08;109611;1284;22205;-67
2023/01/21 15:16:54;;;;;;;31.90;16.40;;;;;;;0.42;100.00;100009.16;109540;1285;138337;-66
2023/01/21 15:19:34;;;;;;;;;;;;;;;0.43;100.00;100022.25;109656;1285;22481;-67
2023/01/21 15:22:01;;;;;;;45.50;21.10;;;;;;;0.44;100.00;100023.43;109515;1285;124676;-67
2023/01/21 15:24:30;;;;;;;141.70;53.30;;;;;;;0.44;100.00;100031.64;109624;1285;22179;-68
2023/01/21 15:27:14;;;;;;;41.00;18.10;;;;;;;0.45;100.00;100031.99;109370;1280;139880;-67
2023/01/21 15:29:53;;;;;;;51.40;24.00;;;;;;;0.48;100.00;100033.28;109609;1285;22278;-67
2023/01/21 15:32:35;;;;;;;35.30;17.80;;;;;;;0.49;100.00;100034.55;109607;1280;22193;-67
2023/01/21 15:35:32;;;;;;;46.80;22.80;;;;;;;0.50;100.00;100034.44;109542;1286;22194;-67
2023/01/21 15:38:07;;;;;;;45.00;18.60;;;;;;;0.51;100.00;100031.52;109442;1280;22424;-66
2023/01/21 15:40:38;;;;;;;34.80;19.40;;;;;;;0.50;100.00;100034.67;109383;1281;138723;-67
2023/01/21 15:43:25;;;;;;;39.70;20.80;;;;;;;0.48;100.00;100038.41;109667;1284;22245;-67
2023/01/21 15:46:19;;;;;;;37.00;18.00;;;;;;;0.49;100.00;100042.59;109547;1286;138881;-67